sensor_id;sensor_type;location;lat;lon;timestamp;P1;durP1;ratioP1;P2;durP2;ratioP2
12916;SDS011;6526;54.312;13.092;2023-02-11T00:00:12;9.27;;;5.10;;
12916;SDS011;6526;54.312;13.092;2023-02-11T00:02:39;20.37;;;12.50;;
12916;SDS011;6526;54.312;13.092;2023-02-11T00:05:06;8.87;;;5.50;;
12916;SDS011;6526;54.312;13.092;2023-02-11T00:07:32;8.87;;;5.47;;
12916;SDS011;6526;54.312;13.092;2023-02-11T00:09:59;9.07;;;6.33;;
12916;SDS011;6526;54.312;13.092;2023-02-11T00:12:28;8.97;;;6.90;;
12916;SDS011;6526;54.312;13.092;2023-02-11T00:14:54;5.00;;;3.63;;
12916;SDS011;6526;54.312;13.092;2023-02-11T00:17:20;11.23;;;7.33;;
12916;SDS011;6526;54.312;13.092;2023-02-11T00:19:50;13.87;;;6.37;;
12916;SDS011;6526;54.312;13.092;2023-02-11T00:22:16;9.87;;;4.33;;
12916;SDS011;6526;54.312;13.092;2023-02-11T00:24:43;11.27;;;7.80;;
12916;SDS011;6526;54.312;13.092;2023-02-11T00:27:09;7.73;;;5.33;;
12916;SDS011;6526;54.312;13.092;2023-02-11T00:29:36;10.87;;;5.43;;
12916;SDS011;6526;54.312;13.092;2023-02-11T00:32:02;9.60;;;5.50;;
12916;SDS011;6526;54.312;13.092;2023-02-11T00:34:29;5.63;;;4.63;;
12916;SDS011;6526;54.312;13.092;2023-02-11T00:36:56;11.57;;;5.93;;
12916;SDS011;6526;54.312;13.092;2023-02-11T00:39:22;11.67;;;6.20;;
12916;SDS011;6526;54.312;13.092;2023-02-11T00:41:48;7.17;;;6.23;;
12916;SDS011;6526;54.312;13.092;2023-02-11T00:44:14;12.13;;;6.60;;
12916;SDS011;6526;54.312;13.092;2023-02-11T00:46:40;10.83;;;5.63;;
12916;SDS011;6526;54.312;13.092;2023-02-11T00:49:06;11.90;;;6.20;;
12916;SDS011;6526;54.312;13.092;2023-02-11T00:51:32;10.00;;;6.80;;
12916;SDS011;6526;54.312;13.092;2023-02-11T00:53:58;4.40;;;3.20;;
12916;SDS011;6526;54.312;13.092;2023-02-11T00:56:25;14.43;;;7.70;;
12916;SDS011;6526;54.312;13.092;2023-02-11T00:58:51;16.97;;;6.23;;
12916;SDS011;6526;54.312;13.092;2023-02-11T01:01:18;12.47;;;6.77;;
12916;SDS011;6526;54.312;13.092;2023-02-11T01:03:44;9.93;;;5.37;;
12916;SDS011;6526;54.312;13.092;2023-02-11T01:06:10;13.10;;;6.63;;
12916;SDS011;6526;54.312;13.092;2023-02-11T01:08:36;12.40;;;5.17;;
12916;SDS011;6526;54.312;13.092;2023-02-11T01:11:04;10.70;;;5.77;;
12916;SDS011;6526;54.312;13.092;2023-02-11T01:13:35;10.07;;;5.50;;
12916;SDS011;6526;54.312;13.092;2023-02-11T01:16:01;10.97;;;5.50;;
12916;SDS011;6526;54.312;13.092;2023-02-11T01:18:30;9.27;;;6.40;;
12916;SDS011;6526;54.312;13.092;2023-02-11T01:20:56;10.97;;;5.87;;
12916;SDS011;6526;54.312;13.092;2023-02-11T01:23:22;6.30;;;4.37;;
12916;SDS011;6526;54.312;13.092;2023-02-11T01:25:48;4.20;;;3.17;;
12916;SDS011;6526;54.312;13.092;2023-02-11T01:28:15;6.53;;;4.30;;
12916;SDS011;6526;54.312;13.092;2023-02-11T01:30:43;9.83;;;4.70;;
12916;SDS011;6526;54.312;13.092;2023-02-11T01:33:09;15.60;;;7.20;;
12916;SDS011;6526;54.312;13.092;2023-02-11T01:35:36;6.47;;;4.57;;
12916;SDS011;6526;54.312;13.092;2023-02-11T01:38:06;5.40;;;3.00;;
12916;SDS011;6526;54.312;13.092;2023-02-11T01:40:38;8.00;;;5.87;;
12916;SDS011;6526;54.312;13.092;2023-02-11T01:43:04;8.43;;;3.93;;
12916;SDS011;6526;54.312;13.092;2023-02-11T01:48:08;6.93;;;4.23;;
12916;SDS011;6526;54.312;13.092;2023-02-11T01:50:37;11.10;;;5.10;;
12916;SDS011;6526;54.312;13.092;2023-02-11T01:53:05;4.63;;;2.43;;
12916;SDS011;6526;54.312;13.092;2023-02-11T01:55:51;7.73;;;3.77;;
12916;SDS011;6526;54.312;13.092;2023-02-11T01:58:37;3.27;;;2.27;;
12916;SDS011;6526;54.312;13.092;2023-02-11T02:01:08;8.57;;;3.87;;
12916;SDS011;6526;54.312;13.092;2023-02-11T02:03:38;9.37;;;5.93;;
12916;SDS011;6526;54.312;13.092;2023-02-11T02:09:19;10.13;;;5.57;;
12916;SDS011;6526;54.312;13.092;2023-02-11T02:11:49;10.43;;;5.93;;
12916;SDS011;6526;54.312;13.092;2023-02-11T02:14:15;15.33;;;6.70;;
12916;SDS011;6526;54.312;13.092;2023-02-11T02:16:41;14.10;;;4.67;;
12916;SDS011;6526;54.312;13.092;2023-02-11T02:22:09;10.07;;;7.23;;
12916;SDS011;6526;54.312;13.092;2023-02-11T02:25:04;8.50;;;4.70;;
12916;SDS011;6526;54.312;13.092;2023-02-11T02:30:47;16.00;;;6.90;;
12916;SDS011;6526;54.312;13.092;2023-02-11T02:33:54;11.50;;;5.83;;
12916;SDS011;6526;54.312;13.092;2023-02-11T02:36:46;9.87;;;5.33;;
12916;SDS011;6526;54.312;13.092;2023-02-11T02:39:25;13.93;;;5.67;;
12916;SDS011;6526;54.312;13.092;2023-02-11T02:41:55;9.20;;;5.03;;
12916;SDS011;6526;54.312;13.092;2023-02-11T02:44:22;8.83;;;4.97;;
12916;SDS011;6526;54.312;13.092;2023-02-11T02:46:48;11.73;;;6.73;;
12916;SDS011;6526;54.312;13.092;2023-02-11T02:49:15;5.50;;;3.50;;
12916;SDS011;6526;54.312;13.092;2023-02-11T02:51:44;10.10;;;4.83;;
12916;SDS011;6526;54.312;13.092;2023-02-11T02:57:28;8.13;;;4.73;;
12916;SDS011;6526;54.312;13.092;2023-02-11T03:02:46;10.17;;;5.77;;
12916;SDS011;6526;54.312;13.092;2023-02-11T03:05:35;10.03;;;7.03;;
12916;SDS011;6526;54.312;13.092;2023-02-11T03:08:15;11.57;;;5.90;;
12916;SDS011;6526;54.312;13.092;2023-02-11T03:10:53;8.77;;;5.63;;
12916;SDS011;6526;54.312;13.092;2023-02-11T03:13:21;12.27;;;5.23;;
12916;SDS011;6526;54.312;13.092;2023-02-11T03:15:52;6.97;;;4.53;;
12916;SDS011;6526;54.312;13.092;2023-02-11T03:18:21;12.13;;;5.07;;
12916;SDS011;6526;54.312;13.092;2023-02-11T03:20:53;12.50;;;5.57;;
12916;SDS011;6526;54.312;13.092;2023-02-11T03:34:44;7.57;;;4.57;;
12916;SDS011;6526;54.312;13.092;2023-02-11T03:40:05;5.47;;;3.17;;
12916;SDS011;6526;54.312;13.092;2023-02-11T03:42:34;10.20;;;5.07;;
12916;SDS011;6526;54.312;13.092;2023-02-11T03:45:25;7.60;;;3.23;;
12916;SDS011;6526;54.312;13.092;2023-02-11T03:48:05;7.67;;;4.53;;
12916;SDS011;6526;54.312;13.092;2023-02-11T03:50:36;5.53;;;3.67;;
12916;SDS011;6526;54.312;13.092;2023-02-11T03:53:04;6.47;;;4.50;;
12916;SDS011;6526;54.312;13.092;2023-02-11T03:55:32;8.60;;;5.30;;
12916;SDS011;6526;54.312;13.092;2023-02-11T03:58:02;4.23;;;2.87;;
12916;SDS011;6526;54.312;13.092;2023-02-11T04:00:32;7.93;;;4.87;;
12916;SDS011;6526;54.312;13.092;2023-02-11T04:03:00;6.93;;;3.63;;
12916;SDS011;6526;54.312;13.092;2023-02-11T04:05:26;7.03;;;3.60;;
12916;SDS011;6526;54.312;13.092;2023-02-11T04:07:53;4.37;;;3.70;;
12916;SDS011;6526;54.312;13.092;2023-02-11T04:10:19;7.63;;;4.90;;
12916;SDS011;6526;54.312;13.092;2023-02-11T04:12:45;7.43;;;4.03;;
12916;SDS011;6526;54.312;13.092;2023-02-11T04:15:11;11.27;;;4.37;;
12916;SDS011;6526;54.312;13.092;2023-02-11T04:17:38;7.47;;;3.17;;
12916;SDS011;6526;54.312;13.092;2023-02-11T04:20:04;11.23;;;4.83;;
12916;SDS011;6526;54.312;13.092;2023-02-11T04:22:30;4.00;;;2.97;;
12916;SDS011;6526;54.312;13.092;2023-02-11T04:24:56;13.80;;;4.53;;
12916;SDS011;6526;54.312;13.092;2023-02-11T04:27:22;9.13;;;3.23;;
12916;SDS011;6526;54.312;13.092;2023-02-11T04:29:48;9.40;;;6.50;;
12916;SDS011;6526;54.312;13.092;2023-02-11T04:32:14;9.73;;;5.10;;
12916;SDS011;6526;54.312;13.092;2023-02-11T04:34:40;7.27;;;2.87;;
12916;SDS011;6526;54.312;13.092;2023-02-11T04:37:06;8.17;;;4.77;;
12916;SDS011;6526;54.312;13.092;2023-02-11T04:39:33;13.23;;;5.43;;
12916;SDS011;6526;54.312;13.092;2023-02-11T04:41:59;10.27;;;4.80;;
12916;SDS011;6526;54.312;13.092;2023-02-11T04:44:25;9.07;;;3.70;;
12916;SDS011;6526;54.312;13.092;2023-02-11T04:46:51;4.53;;;4.13;;
12916;SDS011;6526;54.312;13.092;2023-02-11T04:49:18;6.00;;;4.03;;
12916;SDS011;6526;54.312;13.092;2023-02-11T04:51:44;11.60;;;6.10;;
12916;SDS011;6526;54.312;13.092;2023-02-11T04:54:10;7.27;;;4.53;;
12916;SDS011;6526;54.312;13.092;2023-02-11T04:56:36;9.20;;;5.77;;
12916;SDS011;6526;54.312;13.092;2023-02-11T04:59:03;14.90;;;8.17;;
12916;SDS011;6526;54.312;13.092;2023-02-11T05:01:30;2.30;;;2.00;;
12916;SDS011;6526;54.312;13.092;2023-02-11T05:03:57;9.03;;;5.67;;
12916;SDS011;6526;54.312;13.092;2023-02-11T05:06:23;16.60;;;5.53;;
12916;SDS011;6526;54.312;13.092;2023-02-11T05:08:49;15.43;;;6.50;;
12916;SDS011;6526;54.312;13.092;2023-02-11T05:11:20;8.17;;;4.43;;
12916;SDS011;6526;54.312;13.092;2023-02-11T05:13:47;12.70;;;4.50;;
12916;SDS011;6526;54.312;13.092;2023-02-11T05:16:13;18.03;;;6.30;;
12916;SDS011;6526;54.312;13.092;2023-02-11T05:18:41;11.83;;;5.97;;
12916;SDS011;6526;54.312;13.092;2023-02-11T05:21:10;24.90;;;12.20;;
12916;SDS011;6526;54.312;13.092;2023-02-11T05:23:37;20.33;;;8.37;;
12916;SDS011;6526;54.312;13.092;2023-02-11T05:26:04;16.97;;;8.40;;
12916;SDS011;6526;54.312;13.092;2023-02-11T05:28:31;12.47;;;6.00;;
12916;SDS011;6526;54.312;13.092;2023-02-11T05:30:57;25.57;;;5.77;;
12916;SDS011;6526;54.312;13.092;2023-02-11T05:33:23;10.97;;;5.53;;
12916;SDS011;6526;54.312;13.092;2023-02-11T05:35:50;9.57;;;5.33;;
12916;SDS011;6526;54.312;13.092;2023-02-11T05:38:16;19.60;;;5.63;;
12916;SDS011;6526;54.312;13.092;2023-02-11T05:40:42;19.07;;;7.23;;
12916;SDS011;6526;54.312;13.092;2023-02-11T05:43:08;11.97;;;4.03;;
12916;SDS011;6526;54.312;13.092;2023-02-11T05:45:34;15.13;;;6.43;;
12916;SDS011;6526;54.312;13.092;2023-02-11T05:48:00;14.00;;;7.57;;
12916;SDS011;6526;54.312;13.092;2023-02-11T05:50:26;10.07;;;4.23;;
12916;SDS011;6526;54.312;13.092;2023-02-11T05:52:52;9.40;;;3.20;;
12916;SDS011;6526;54.312;13.092;2023-02-11T05:55:18;9.73;;;5.33;;
12916;SDS011;6526;54.312;13.092;2023-02-11T05:57:44;21.13;;;8.20;;
12916;SDS011;6526;54.312;13.092;2023-02-11T06:00:10;20.53;;;7.10;;
12916;SDS011;6526;54.312;13.092;2023-02-11T06:02:37;9.63;;;4.70;;
12916;SDS011;6526;54.312;13.092;2023-02-11T06:05:03;2.73;;;2.40;;
12916;SDS011;6526;54.312;13.092;2023-02-11T06:07:29;10.10;;;6.07;;
12916;SDS011;6526;54.312;13.092;2023-02-11T06:09:55;7.00;;;4.10;;
12916;SDS011;6526;54.312;13.092;2023-02-11T06:12:21;13.60;;;7.60;;
12916;SDS011;6526;54.312;13.092;2023-02-11T06:14:47;7.87;;;4.57;;
12916;SDS011;6526;54.312;13.092;2023-02-11T06:17:13;3.87;;;2.00;;
12916;SDS011;6526;54.312;13.092;2023-02-11T06:19:39;10.33;;;4.83;;
12916;SDS011;6526;54.312;13.092;2023-02-11T06:22:05;8.87;;;3.50;;
12916;SDS011;6526;54.312;13.092;2023-02-11T06:24:31;6.17;;;3.43;;
12916;SDS011;6526;54.312;13.092;2023-02-11T06:26:57;8.60;;;4.70;;
12916;SDS011;6526;54.312;13.092;2023-02-11T06:29:23;12.73;;;5.77;;
12916;SDS011;6526;54.312;13.092;2023-02-11T06:31:49;11.57;;;4.30;;
12916;SDS011;6526;54.312;13.092;2023-02-11T06:34:15;9.63;;;4.43;;
12916;SDS011;6526;54.312;13.092;2023-02-11T06:36:41;7.77;;;5.27;;
12916;SDS011;6526;54.312;13.092;2023-02-11T06:39:08;7.20;;;3.67;;
12916;SDS011;6526;54.312;13.092;2023-02-11T06:41:36;15.00;;;5.13;;
12916;SDS011;6526;54.312;13.092;2023-02-11T06:44:02;10.68;;;4.65;;
12916;SDS011;6526;54.312;13.092;2023-02-11T06:46:28;17.13;;;8.03;;
12916;SDS011;6526;54.312;13.092;2023-02-11T06:48:54;4.03;;;3.17;;
12916;SDS011;6526;54.312;13.092;2023-02-11T06:51:20;11.57;;;4.93;;
12916;SDS011;6526;54.312;13.092;2023-02-11T06:53:46;11.93;;;5.30;;
12916;SDS011;6526;54.312;13.092;2023-02-11T06:56:14;5.53;;;3.67;;
12916;SDS011;6526;54.312;13.092;2023-02-11T06:58:42;10.47;;;4.50;;
12916;SDS011;6526;54.312;13.092;2023-02-11T07:01:09;12.10;;;4.60;;
12916;SDS011;6526;54.312;13.092;2023-02-11T07:03:38;3.63;;;3.30;;
12916;SDS011;6526;54.312;13.092;2023-02-11T07:06:06;8.90;;;4.93;;
12916;SDS011;6526;54.312;13.092;2023-02-11T07:08:35;21.60;;;6.23;;
12916;SDS011;6526;54.312;13.092;2023-02-11T07:11:15;5.20;;;3.10;;
12916;SDS011;6526;54.312;13.092;2023-02-11T07:13:48;9.90;;;5.77;;
12916;SDS011;6526;54.312;13.092;2023-02-11T07:16:15;6.40;;;3.97;;
12916;SDS011;6526;54.312;13.092;2023-02-11T07:18:42;14.60;;;4.87;;
12916;SDS011;6526;54.312;13.092;2023-02-11T07:21:10;20.97;;;6.70;;
12916;SDS011;6526;54.312;13.092;2023-02-11T07:23:37;5.37;;;3.43;;
12916;SDS011;6526;54.312;13.092;2023-02-11T07:26:05;7.57;;;4.80;;
12916;SDS011;6526;54.312;13.092;2023-02-11T07:28:34;16.77;;;6.37;;
12916;SDS011;6526;54.312;13.092;2023-02-11T07:31:08;20.80;;;9.80;;
12916;SDS011;6526;54.312;13.092;2023-02-11T07:33:36;21.07;;;8.13;;
12916;SDS011;6526;54.312;13.092;2023-02-11T07:36:03;21.47;;;7.20;;
12916;SDS011;6526;54.312;13.092;2023-02-11T07:38:31;15.60;;;4.20;;
12916;SDS011;6526;54.312;13.092;2023-02-11T07:41:02;14.53;;;7.43;;
12916;SDS011;6526;54.312;13.092;2023-02-11T07:43:31;6.40;;;4.83;;
12916;SDS011;6526;54.312;13.092;2023-02-11T07:45:57;10.23;;;4.10;;
12916;SDS011;6526;54.312;13.092;2023-02-11T07:48:23;8.73;;;3.83;;
12916;SDS011;6526;54.312;13.092;2023-02-11T07:50:49;10.27;;;5.33;;
12916;SDS011;6526;54.312;13.092;2023-02-11T07:53:15;24.17;;;7.87;;
12916;SDS011;6526;54.312;13.092;2023-02-11T07:55:42;5.43;;;2.87;;
12916;SDS011;6526;54.312;13.092;2023-02-11T07:58:08;8.80;;;2.90;;
12916;SDS011;6526;54.312;13.092;2023-02-11T08:00:34;11.07;;;3.90;;
12916;SDS011;6526;54.312;13.092;2023-02-11T08:03:00;8.93;;;4.37;;
12916;SDS011;6526;54.312;13.092;2023-02-11T08:05:27;2.63;;;1.83;;
12916;SDS011;6526;54.312;13.092;2023-02-11T08:07:54;9.83;;;2.60;;
12916;SDS011;6526;54.312;13.092;2023-02-11T08:10:20;11.10;;;5.03;;
12916;SDS011;6526;54.312;13.092;2023-02-11T08:12:46;8.60;;;5.33;;
12916;SDS011;6526;54.312;13.092;2023-02-11T08:15:12;13.13;;;4.47;;
12916;SDS011;6526;54.312;13.092;2023-02-11T08:17:38;9.20;;;3.57;;
12916;SDS011;6526;54.312;13.092;2023-02-11T08:20:05;20.03;;;7.33;;
12916;SDS011;6526;54.312;13.092;2023-02-11T08:22:31;5.80;;;4.27;;
12916;SDS011;6526;54.312;13.092;2023-02-11T08:24:58;7.10;;;4.20;;
12916;SDS011;6526;54.312;13.092;2023-02-11T08:27:24;16.80;;;4.00;;
12916;SDS011;6526;54.312;13.092;2023-02-11T08:29:52;13.23;;;6.07;;
12916;SDS011;6526;54.312;13.092;2023-02-11T08:32:18;10.37;;;4.20;;
12916;SDS011;6526;54.312;13.092;2023-02-11T08:34:44;14.83;;;5.97;;
12916;SDS011;6526;54.312;13.092;2023-02-11T08:37:14;11.10;;;3.50;;
12916;SDS011;6526;54.312;13.092;2023-02-11T08:39:40;20.27;;;5.90;;
12916;SDS011;6526;54.312;13.092;2023-02-11T08:42:06;5.43;;;2.90;;
12916;SDS011;6526;54.312;13.092;2023-02-11T08:44:32;8.83;;;2.70;;
12916;SDS011;6526;54.312;13.092;2023-02-11T08:46:58;11.93;;;4.67;;
12916;SDS011;6526;54.312;13.092;2023-02-11T08:49:24;6.80;;;2.77;;
12916;SDS011;6526;54.312;13.092;2023-02-11T08:51:50;4.67;;;2.80;;
12916;SDS011;6526;54.312;13.092;2023-02-11T08:54:18;3.70;;;1.90;;
12916;SDS011;6526;54.312;13.092;2023-02-11T08:56:44;7.63;;;2.50;;
12916;SDS011;6526;54.312;13.092;2023-02-11T08:59:11;8.70;;;3.97;;
12916;SDS011;6526;54.312;13.092;2023-02-11T09:01:38;13.73;;;1.57;;
12916;SDS011;6526;54.312;13.092;2023-02-11T09:04:04;14.40;;;3.07;;
12916;SDS011;6526;54.312;13.092;2023-02-11T09:06:30;6.10;;;3.03;;
12916;SDS011;6526;54.312;13.092;2023-02-11T09:08:57;12.80;;;3.90;;
12916;SDS011;6526;54.312;13.092;2023-02-11T09:11:25;11.73;;;5.17;;
12916;SDS011;6526;54.312;13.092;2023-02-11T09:13:53;10.13;;;2.90;;
12916;SDS011;6526;54.312;13.092;2023-02-11T09:16:21;3.13;;;1.23;;
12916;SDS011;6526;54.312;13.092;2023-02-11T09:18:50;5.30;;;3.23;;
12916;SDS011;6526;54.312;13.092;2023-02-11T09:21:16;5.70;;;1.93;;
12916;SDS011;6526;54.312;13.092;2023-02-11T09:23:43;9.63;;;4.30;;
12916;SDS011;6526;54.312;13.092;2023-02-11T09:26:13;18.50;;;4.87;;
12916;SDS011;6526;54.312;13.092;2023-02-11T09:28:44;6.70;;;2.97;;
12916;SDS011;6526;54.312;13.092;2023-02-11T09:31:12;15.17;;;4.33;;
12916;SDS011;6526;54.312;13.092;2023-02-11T09:33:42;7.77;;;2.17;;
12916;SDS011;6526;54.312;13.092;2023-02-11T09:36:14;7.40;;;2.87;;
12916;SDS011;6526;54.312;13.092;2023-02-11T09:38:42;6.40;;;2.10;;
12916;SDS011;6526;54.312;13.092;2023-02-11T09:43:56;9.50;;;1.47;;
12916;SDS011;6526;54.312;13.092;2023-02-11T09:46:24;7.90;;;2.60;;
12916;SDS011;6526;54.312;13.092;2023-02-11T09:48:55;5.00;;;2.07;;
12916;SDS011;6526;54.312;13.092;2023-02-11T09:51:34;13.40;;;2.37;;
12916;SDS011;6526;54.312;13.092;2023-02-11T09:54:19;8.57;;;3.00;;
12916;SDS011;6526;54.312;13.092;2023-02-11T09:56:52;3.87;;;2.07;;
12916;SDS011;6526;54.312;13.092;2023-02-11T09:59:18;2.00;;;0.97;;
12916;SDS011;6526;54.312;13.092;2023-02-11T10:01:46;17.70;;;2.80;;
12916;SDS011;6526;54.312;13.092;2023-02-11T10:04:40;5.80;;;1.57;;
12916;SDS011;6526;54.312;13.092;2023-02-11T10:16:52;4.43;;;1.53;;
12916;SDS011;6526;54.312;13.092;2023-02-11T10:19:39;6.67;;;1.43;;
12916;SDS011;6526;54.312;13.092;2023-02-11T10:22:31;6.50;;;1.50;;
12916;SDS011;6526;54.312;13.092;2023-02-11T10:25:26;7.80;;;2.93;;
12916;SDS011;6526;54.312;13.092;2023-02-11T10:27:57;16.80;;;2.87;;
12916;SDS011;6526;54.312;13.092;2023-02-11T10:33:02;8.07;;;2.73;;
12916;SDS011;6526;54.312;13.092;2023-02-11T10:35:35;8.27;;;1.90;;
12916;SDS011;6526;54.312;13.092;2023-02-11T10:38:02;4.60;;;1.40;;
12916;SDS011;6526;54.312;13.092;2023-02-11T10:40:29;2.07;;;0.80;;
12916;SDS011;6526;54.312;13.092;2023-02-11T10:43:00;4.37;;;1.83;;
12916;SDS011;6526;54.312;13.092;2023-02-11T10:45:37;5.03;;;1.50;;
12916;SDS011;6526;54.312;13.092;2023-02-11T10:48:34;15.83;;;2.00;;
12916;SDS011;6526;54.312;13.092;2023-02-11T10:51:11;10.67;;;2.20;;
12916;SDS011;6526;54.312;13.092;2023-02-11T10:53:38;4.23;;;1.73;;
12916;SDS011;6526;54.312;13.092;2023-02-11T10:56:05;4.37;;;1.97;;
12916;SDS011;6526;54.312;13.092;2023-02-11T10:58:44;5.27;;;1.63;;
12916;SDS011;6526;54.312;13.092;2023-02-11T11:01:18;15.03;;;5.43;;
12916;SDS011;6526;54.312;13.092;2023-02-11T11:03:48;8.17;;;2.70;;
12916;SDS011;6526;54.312;13.092;2023-02-11T11:06:16;10.77;;;1.50;;
12916;SDS011;6526;54.312;13.092;2023-02-11T11:08:57;8.37;;;2.33;;
12916;SDS011;6526;54.312;13.092;2023-02-11T11:11:24;4.23;;;1.23;;
12916;SDS011;6526;54.312;13.092;2023-02-11T11:14:00;5.73;;;1.50;;
12916;SDS011;6526;54.312;13.092;2023-02-11T11:16:28;1.80;;;0.93;;
12916;SDS011;6526;54.312;13.092;2023-02-11T11:21:35;10.10;;;1.60;;
12916;SDS011;6526;54.312;13.092;2023-02-11T11:24:13;2.53;;;1.30;;
12916;SDS011;6526;54.312;13.092;2023-02-11T11:26:49;9.23;;;2.47;;
12916;SDS011;6526;54.312;13.092;2023-02-11T11:29:34;3.53;;;0.90;;
12916;SDS011;6526;54.312;13.092;2023-02-11T11:34:58;10.33;;;1.33;;
12916;SDS011;6526;54.312;13.092;2023-02-11T11:37:28;9.47;;;1.47;;
12916;SDS011;6526;54.312;13.092;2023-02-11T11:40:01;1.40;;;0.77;;
12916;SDS011;6526;54.312;13.092;2023-02-11T11:42:45;8.27;;;1.10;;
12916;SDS011;6526;54.312;13.092;2023-02-11T11:45:27;5.93;;;1.27;;
12916;SDS011;6526;54.312;13.092;2023-02-11T11:48:27;15.20;;;1.90;;
12916;SDS011;6526;54.312;13.092;2023-02-11T11:51:09;6.93;;;1.30;;
12916;SDS011;6526;54.312;13.092;2023-02-11T11:53:36;9.90;;;1.90;;
12916;SDS011;6526;54.312;13.092;2023-02-11T11:56:10;2.53;;;0.80;;
12916;SDS011;6526;54.312;13.092;2023-02-11T11:58:43;7.10;;;2.17;;
12916;SDS011;6526;54.312;13.092;2023-02-11T12:01:19;2.70;;;1.83;;
12916;SDS011;6526;54.312;13.092;2023-02-11T12:04:04;4.83;;;1.43;;
12916;SDS011;6526;54.312;13.092;2023-02-11T12:06:52;0.57;;;0.50;;
12916;SDS011;6526;54.312;13.092;2023-02-11T12:09:52;3.93;;;1.50;;
12916;SDS011;6526;54.312;13.092;2023-02-11T12:15:39;2.63;;;0.83;;
12916;SDS011;6526;54.312;13.092;2023-02-11T12:18:24;5.43;;;1.63;;
12916;SDS011;6526;54.312;13.092;2023-02-11T12:26:43;5.00;;;1.70;;
12916;SDS011;6526;54.312;13.092;2023-02-11T12:35:05;2.43;;;1.23;;
12916;SDS011;6526;54.312;13.092;2023-02-11T12:43:19;2.60;;;1.00;;
12916;SDS011;6526;54.312;13.092;2023-02-11T12:51:16;0.67;;;0.60;;
12916;SDS011;6526;54.312;13.092;2023-02-11T12:59:50;7.10;;;1.60;;
12916;SDS011;6526;54.312;13.092;2023-02-11T13:07:52;1.17;;;0.77;;
12916;SDS011;6526;54.312;13.092;2023-02-11T13:10:35;0.53;;;0.53;;
12916;SDS011;6526;54.312;13.092;2023-02-11T13:13:08;4.10;;;1.30;;
12916;SDS011;6526;54.312;13.092;2023-02-11T13:18:21;2.20;;;1.50;;
12916;SDS011;6526;54.312;13.092;2023-02-11T13:23:42;0.30;;;0.20;;
12916;SDS011;6526;54.312;13.092;2023-02-11T13:26:46;6.47;;;1.13;;
12916;SDS011;6526;54.312;13.092;2023-02-11T13:29:28;10.07;;;2.90;;
12916;SDS011;6526;54.312;13.092;2023-02-11T13:37:05;6.60;;;2.10;;
12916;SDS011;6526;54.312;13.092;2023-02-11T13:39:56;5.17;;;1.17;;
12916;SDS011;6526;54.312;13.092;2023-02-11T13:42:53;0.30;;;0.23;;
12916;SDS011;6526;54.312;13.092;2023-02-11T13:47:49;10.20;;;1.83;;
12916;SDS011;6526;54.312;13.092;2023-02-11T13:50:22;16.53;;;1.83;;
12916;SDS011;6526;54.312;13.092;2023-02-11T13:53:00;0.60;;;0.60;;
12916;SDS011;6526;54.312;13.092;2023-02-11T13:55:27;5.20;;;1.17;;
12916;SDS011;6526;54.312;13.092;2023-02-11T14:04:04;1.27;;;1.03;;
12916;SDS011;6526;54.312;13.092;2023-02-11T14:09:07;1.43;;;0.83;;
12916;SDS011;6526;54.312;13.092;2023-02-11T14:14:21;3.20;;;0.77;;
12916;SDS011;6526;54.312;13.092;2023-02-11T14:19:31;0.40;;;0.40;;
12916;SDS011;6526;54.312;13.092;2023-02-11T14:22:11;0.10;;;0.10;;
12916;SDS011;6526;54.312;13.092;2023-02-11T14:24:50;4.47;;;0.60;;
12916;SDS011;6526;54.312;13.092;2023-02-11T14:30:17;8.43;;;0.83;;
12916;SDS011;6526;54.312;13.092;2023-02-11T14:33:12;1.03;;;0.27;;
12916;SDS011;6526;54.312;13.092;2023-02-11T14:36:08;1.57;;;0.73;;
12916;SDS011;6526;54.312;13.092;2023-02-11T14:38:59;3.40;;;1.17;;
12916;SDS011;6526;54.312;13.092;2023-02-11T14:41:41;0.70;;;0.60;;
12916;SDS011;6526;54.312;13.092;2023-02-11T14:44:13;0.73;;;0.60;;
12916;SDS011;6526;54.312;13.092;2023-02-11T14:46:43;4.07;;;0.93;;
12916;SDS011;6526;54.312;13.092;2023-02-11T14:49:15;0.03;;;0.03;;
12916;SDS011;6526;54.312;13.092;2023-02-11T14:51:51;2.13;;;0.93;;
12916;SDS011;6526;54.312;13.092;2023-02-11T14:54:22;1.03;;;0.60;;
12916;SDS011;6526;54.312;13.092;2023-02-11T14:57:32;2.10;;;0.60;;
12916;SDS011;6526;54.312;13.092;2023-02-11T14:59:55;9.97;;;1.20;;
12916;SDS011;6526;54.312;13.092;2023-02-11T15:02:24;3.10;;;0.50;;
12916;SDS011;6526;54.312;13.092;2023-02-11T15:04:54;4.70;;;1.10;;
12916;SDS011;6526;54.312;13.092;2023-02-11T15:07:43;2.10;;;0.47;;
12916;SDS011;6526;54.312;13.092;2023-02-11T15:10:20;0.40;;;0.40;;
12916;SDS011;6526;54.312;13.092;2023-02-11T15:12:54;5.93;;;1.40;;
12916;SDS011;6526;54.312;13.092;2023-02-11T15:15:21;0.87;;;0.53;;
12916;SDS011;6526;54.312;13.092;2023-02-11T15:17:47;12.53;;;2.43;;
12916;SDS011;6526;54.312;13.092;2023-02-11T15:20:18;1.90;;;0.77;;
12916;SDS011;6526;54.312;13.092;2023-02-11T15:23:00;0.33;;;0.30;;
12916;SDS011;6526;54.312;13.092;2023-02-11T15:25:29;1.30;;;1.17;;
12916;SDS011;6526;54.312;13.092;2023-02-11T15:27:56;3.00;;;0.70;;
12916;SDS011;6526;54.312;13.092;2023-02-11T15:33:18;8.40;;;2.23;;
12916;SDS011;6526;54.312;13.092;2023-02-11T15:35:45;6.03;;;1.33;;
12916;SDS011;6526;54.312;13.092;2023-02-11T15:38:12;1.90;;;1.47;;
12916;SDS011;6526;54.312;13.092;2023-02-11T15:40:38;4.30;;;0.80;;
12916;SDS011;6526;54.312;13.092;2023-02-11T15:43:08;3.50;;;0.80;;
12916;SDS011;6526;54.312;13.092;2023-02-11T15:45:36;11.23;;;0.27;;
12916;SDS011;6526;54.312;13.092;2023-02-11T15:50:54;0.00;;;0.00;;
12916;SDS011;6526;54.312;13.092;2023-02-11T15:53:24;6.83;;;1.90;;
12916;SDS011;6526;54.312;13.092;2023-02-11T15:55:58;1.37;;;0.37;;
12916;SDS011;6526;54.312;13.092;2023-02-11T15:58:41;0.30;;;0.30;;
12916;SDS011;6526;54.312;13.092;2023-02-11T16:01:09;0.30;;;0.30;;
12916;SDS011;6526;54.312;13.092;2023-02-11T16:03:36;0.00;;;0.00;;
12916;SDS011;6526;54.312;13.092;2023-02-11T16:06:14;6.63;;;1.50;;
12916;SDS011;6526;54.312;13.092;2023-02-11T16:09:01;0.67;;;0.67;;
12916;SDS011;6526;54.312;13.092;2023-02-11T16:11:36;3.87;;;0.37;;
12916;SDS011;6526;54.312;13.092;2023-02-11T16:16:52;4.73;;;0.97;;
12916;SDS011;6526;54.312;13.092;2023-02-11T16:19:21;4.93;;;1.73;;
12916;SDS011;6526;54.312;13.092;2023-02-11T16:21:48;0.67;;;0.60;;
12916;SDS011;6526;54.312;13.092;2023-02-11T16:24:16;0.37;;;0.37;;
12916;SDS011;6526;54.312;13.092;2023-02-11T16:26:47;1.70;;;0.73;;
12916;SDS011;6526;54.312;13.092;2023-02-11T16:29:30;1.03;;;0.80;;
12916;SDS011;6526;54.312;13.092;2023-02-11T16:32:06;8.40;;;3.50;;
12916;SDS011;6526;54.312;13.092;2023-02-11T16:34:34;0.63;;;0.60;;
12916;SDS011;6526;54.312;13.092;2023-02-11T16:37:02;4.77;;;1.17;;
12916;SDS011;6526;54.312;13.092;2023-02-11T16:39:29;0.73;;;0.73;;
12916;SDS011;6526;54.312;13.092;2023-02-11T16:41:55;0.10;;;0.10;;
12916;SDS011;6526;54.312;13.092;2023-02-11T16:44:22;0.63;;;0.10;;
12916;SDS011;6526;54.312;13.092;2023-02-11T16:46:48;1.30;;;0.87;;
12916;SDS011;6526;54.312;13.092;2023-02-11T16:49:16;2.23;;;0.93;;
12916;SDS011;6526;54.312;13.092;2023-02-11T16:51:50;2.73;;;0.90;;
12916;SDS011;6526;54.312;13.092;2023-02-11T16:54:21;1.27;;;1.20;;
12916;SDS011;6526;54.312;13.092;2023-02-11T16:56:47;4.00;;;0.70;;
12916;SDS011;6526;54.312;13.092;2023-02-11T16:59:14;0.00;;;0.00;;
12916;SDS011;6526;54.312;13.092;2023-02-11T17:01:41;4.30;;;0.80;;
12916;SDS011;6526;54.312;13.092;2023-02-11T17:04:27;0.53;;;0.40;;
12916;SDS011;6526;54.312;13.092;2023-02-11T17:06:54;0.00;;;0.00;;
12916;SDS011;6526;54.312;13.092;2023-02-11T17:09:22;4.07;;;1.27;;
12916;SDS011;6526;54.312;13.092;2023-02-11T17:11:49;0.77;;;0.67;;